PWSweather.com
Personal Weather Stations
Station Observations
RIORANCHO
Corrales Heights, Rio Rancho, NM 87124

Corrales HeightsRio Rancho, NM 87124

Lat: 35.241928, Lon: -106.647095

Elevation: 5297

Station Type: Davis Vantage Pro 2 Plus

http://www.weatherriorancho.com

High Low Average
Temperature 75.3°F24.1°C 54.8°F12.7°C 66.1°F18.9°C
Dew Point 26.2°F-3.2°C 12.9°F-10.6°C 18.6°F-7.4°C
Winds 12.7 mph 20.4 kmh Calm Calm 3.0 mph S4.8 kmh S
Wind Gusts 23.0 mph37.0 kmh -- 6.0 mph9.7 kmh
Humidity 28% 11% 17%
Pressure 29.89 in1012.2 mb 29.78 in1008.5 mb -
Precipitation 0.00 in0.0 mm - -
Hour Temp Dew Point Humidity Winds Wind Gusts Pressure Precip Precip Rate Daily Precip Total
12:00 AM 63.5°F17.5°C 13.4°F-10.3°C 14% Calm Calm -- 29.86 in1011.2 mb - 0.00 in0.0 mm 0.00 in0.0 mm
12:10 AM 62.5°F16.9°C 12.6°F-10.8°C 14% Calm Calm -- 29.86 in1011.2 mb - 0.00 in0.0 mm 0.00 in0.0 mm
12:20 AM 61.6°F16.4°C 13.4°F-10.3°C 15% Calm Calm -- 29.86 in1011.2 mb - 0.00 in0.0 mm 0.00 in0.0 mm
12:30 AM 61.2°F16.2°C 14.6°F-9.7°C 16% Calm Calm -- 29.86 in1011.2 mb - 0.00 in0.0 mm 0.00 in0.0 mm
12:40 AM 61.0°F16.1°C 14.4°F-9.8°C 16% Calm Calm -- 29.86 in1011.2 mb - 0.00 in0.0 mm 0.00 in0.0 mm
12:50 AM 61.0°F16.1°C 14.4°F-9.8°C 16% Calm Calm -- 29.86 in1011.2 mb - 0.00 in0.0 mm 0.00 in0.0 mm
01:00 AM 61.6°F16.4°C 14.9°F-9.5°C 16% Calm Calm -- 29.85 in1010.8 mb - 0.00 in0.0 mm 0.00 in0.0 mm
01:10 AM 61.6°F16.4°C 13.4°F-10.3°C 15% Calm Calm -- 29.86 in1011.2 mb - 0.00 in0.0 mm 0.00 in0.0 mm
01:20 AM 61.3°F16.3°C 14.7°F-9.6°C 16% Calm Calm -- 29.86 in1011.2 mb - 0.00 in0.0 mm 0.00 in0.0 mm
01:30 AM 61.1°F16.2°C 14.5°F-9.7°C 16% Calm Calm -- 29.86 in1011.2 mb - 0.00 in0.0 mm 0.00 in0.0 mm
01:40 AM 60.6°F15.9°C 15.5°F-9.2°C 17% Calm Calm -- 29.86 in1011.2 mb - 0.00 in0.0 mm 0.00 in0.0 mm
01:50 AM 59.8°F15.4°C 16.2°F-8.8°C 18% Calm Calm -- 29.85 in1010.8 mb - 0.00 in0.0 mm 0.00 in0.0 mm
02:00 AM 59.3°F15.2°C 17.0°F-8.3°C 19% Calm Calm -- 29.85 in1010.8 mb - 0.00 in0.0 mm 0.00 in0.0 mm
02:10 AM 59.3°F15.2°C 17.0°F-8.3°C 19% Calm Calm -- 29.85 in1010.8 mb - 0.00 in0.0 mm 0.00 in0.0 mm
02:20 AM 59.6°F15.3°C 14.7°F-9.6°C 17% Calm Calm -- 29.85 in1010.8 mb - 0.00 in0.0 mm 0.00 in0.0 mm
02:30 AM 59.6°F15.3°C 14.7°F-9.6°C 17% Calm Calm -- 29.85 in1010.8 mb - 0.00 in0.0 mm 0.00 in0.0 mm
02:40 AM 59.6°F15.3°C 14.7°F-9.6°C 17% Calm Calm -- 29.85 in1010.8 mb - 0.00 in0.0 mm 0.00 in0.0 mm
02:50 AM 59.5°F15.3°C 14.6°F-9.7°C 17% Calm Calm -- 29.85 in1010.8 mb - 0.00 in0.0 mm 0.00 in0.0 mm
03:00 AM 59.1°F15.1°C 15.6°F-9.1°C 18% Calm Calm -- 29.85 in1010.8 mb - 0.00 in0.0 mm 0.00 in0.0 mm
03:10 AM 59.0°F15.0°C 15.5°F-9.2°C 18% Calm Calm -- 29.85 in1010.8 mb - 0.00 in0.0 mm 0.00 in0.0 mm
03:20 AM 59.6°F15.3°C 16.0°F-8.9°C 18% Calm Calm -- 29.85 in1010.8 mb - 0.00 in0.0 mm 0.00 in0.0 mm
03:30 AM 59.6°F15.3°C 16.0°F-8.9°C 18% Calm Calm -- 29.84 in1010.5 mb - 0.00 in0.0 mm 0.00 in0.0 mm
03:40 AM 59.2°F15.1°C 16.9°F-8.4°C 19% Calm Calm -- 29.84 in1010.5 mb - 0.00 in0.0 mm 0.00 in0.0 mm
03:50 AM 59.0°F15.0°C 17.9°F-7.8°C 20% Calm Calm -- 29.84 in1010.5 mb - 0.00 in0.0 mm 0.00 in0.0 mm
04:00 AM 58.9°F14.9°C 17.8°F-7.9°C 20% Calm Calm -- 29.84 in1010.5 mb - 0.00 in0.0 mm 0.00 in0.0 mm
04:10 AM 58.7°F14.8°C 17.7°F-7.9°C 20% Calm Calm -- 29.85 in1010.8 mb - 0.00 in0.0 mm 0.00 in0.0 mm
04:20 AM 58.5°F14.7°C 18.6°F-7.4°C 21% Calm Calm -- 29.85 in1010.8 mb - 0.00 in0.0 mm 0.00 in0.0 mm
04:30 AM 58.2°F14.6°C 19.5°F-6.9°C 22% Calm Calm -- 29.85 in1010.8 mb - 0.00 in0.0 mm 0.00 in0.0 mm
04:40 AM 57.8°F14.3°C 19.1°F-7.2°C 22% Calm Calm -- 29.86 in1011.2 mb - 0.00 in0.0 mm 0.00 in0.0 mm
04:50 AM 57.3°F14.1°C 18.8°F-7.3°C 22% Calm Calm -- 29.86 in1011.2 mb - 0.00 in0.0 mm 0.00 in0.0 mm
05:00 AM 56.9°F13.8°C 18.4°F-7.6°C 22% Calm Calm -- 29.86 in1011.2 mb - 0.00 in0.0 mm 0.00 in0.0 mm
05:10 AM 58.1°F14.5°C 19.4°F-7.0°C 22% Calm Calm -- 29.86 in1011.2 mb - 0.00 in0.0 mm 0.00 in0.0 mm
05:20 AM 58.2°F14.6°C 19.5°F-6.9°C 22% Calm Calm -- 29.86 in1011.2 mb - 0.00 in0.0 mm 0.00 in0.0 mm
05:30 AM 58.0°F14.4°C 20.4°F-6.4°C 23% Calm Calm -- 29.86 in1011.2 mb - 0.00 in0.0 mm 0.00 in0.0 mm
05:40 AM 57.8°F14.3°C 20.2°F-6.6°C 23% Calm Calm -- 29.86 in1011.2 mb - 0.00 in0.0 mm 0.00 in0.0 mm
05:50 AM 57.4°F14.1°C 19.9°F-6.7°C 23% Calm Calm -- 29.86 in1011.2 mb - 0.00 in0.0 mm 0.00 in0.0 mm
06:00 AM 56.1°F13.4°C 21.6°F-5.8°C 26% 1.2 mph E1.9 kmh E 3.5 mph5.6 kmh 29.86 in1011.2 mb - 0.00 in0.0 mm 0.00 in0.0 mm
06:10 AM 55.5°F13.1°C 20.2°F-6.6°C 25% Calm Calm 1.2 mph1.9 kmh 29.86 in1011.2 mb - 0.00 in0.0 mm 0.00 in0.0 mm
06:20 AM 55.3°F12.9°C 21.0°F-6.1°C 26% Calm Calm -- 29.86 in1011.2 mb - 0.00 in0.0 mm 0.00 in0.0 mm
06:30 AM 54.8°F12.7°C 21.4°F-5.9°C 27% Calm Calm -- 29.87 in1011.5 mb - 0.00 in0.0 mm 0.00 in0.0 mm
06:40 AM 54.9°F12.7°C 21.5°F-5.8°C 27% Calm Calm -- 29.87 in1011.5 mb - 0.00 in0.0 mm 0.00 in0.0 mm
06:50 AM 55.6°F13.1°C 22.1°F-5.5°C 27% Calm Calm -- 29.87 in1011.5 mb - 0.00 in0.0 mm 0.00 in0.0 mm
07:00 AM 56.0°F13.3°C 22.4°F-5.3°C 27% Calm Calm -- 29.87 in1011.5 mb - 0.00 in0.0 mm 0.00 in0.0 mm
07:10 AM 56.1°F13.4°C 22.5°F-5.3°C 27% Calm Calm -- 29.87 in1011.5 mb - 0.00 in0.0 mm 0.00 in0.0 mm
07:20 AM 56.8°F13.8°C 23.1°F-4.9°C 27% Calm Calm 3.5 mph5.6 kmh 29.87 in1011.5 mb - 0.00 in0.0 mm 0.00 in0.0 mm
07:30 AM 58.0°F14.4°C 22.3°F-5.4°C 25% 1.2 mph S1.9 kmh S -- 29.88 in1011.9 mb - 0.00 in0.0 mm 0.00 in0.0 mm
07:40 AM 57.9°F14.4°C 23.2°F-4.9°C 26% Calm Calm 1.2 mph1.9 kmh 29.88 in1011.9 mb - 0.00 in0.0 mm 0.00 in0.0 mm
07:50 AM 58.1°F14.5°C 24.3°F-4.3°C 27% Calm Calm 2.3 mph3.7 kmh 29.88 in1011.9 mb - 0.00 in0.0 mm 0.00 in0.0 mm
08:00 AM 58.6°F14.8°C 25.6°F-3.6°C 28% 1.2 mph SE1.9 kmh SE 3.5 mph5.6 kmh 29.88 in1011.9 mb - 0.00 in0.0 mm 0.00 in0.0 mm
08:10 AM 59.3°F15.2°C 26.2°F-3.2°C 28% Calm Calm -- 29.88 in1011.9 mb - 0.00 in0.0 mm 0.00 in0.0 mm
08:20 AM 61.9°F16.6°C 24.7°F-4.1°C 24% 1.2 mph S1.9 kmh S 4.6 mph7.4 kmh 29.89 in1012.2 mb - 0.00 in0.0 mm 0.00 in0.0 mm
08:30 AM 62.6°F17.0°C 24.3°F-4.3°C 23% 4.6 mph S7.4 kmh S 15.0 mph24.1 kmh 29.89 in1012.2 mb - 0.00 in0.0 mm 0.00 in0.0 mm
08:40 AM 62.8°F17.1°C 23.3°F-4.8°C 22% 4.6 mph S7.4 kmh S 11.5 mph18.5 kmh 29.89 in1012.2 mb - 0.00 in0.0 mm 0.00 in0.0 mm
08:50 AM 63.6°F17.6°C 24.0°F-4.4°C 22% 8.1 mph S13.0 kmh S 15.0 mph24.1 kmh 29.89 in1012.2 mb - 0.00 in0.0 mm 0.00 in0.0 mm
09:00 AM 63.9°F17.7°C 22.0°F-5.6°C 20% 3.5 mph SSW5.6 kmh SSW 11.5 mph18.5 kmh 29.89 in1012.2 mb - 0.00 in0.0 mm 0.00 in0.0 mm
09:10 AM 64.1°F17.8°C 22.2°F-5.4°C 20% 12.7 mph SW20.4 kmh SW 20.7 mph33.3 kmh 29.89 in1012.2 mb - 0.00 in0.0 mm 0.00 in0.0 mm
09:20 AM 64.1°F17.8°C 22.2°F-5.4°C 20% 8.1 mph SSW13.0 kmh SSW 11.5 mph18.5 kmh 29.89 in1012.2 mb - 0.00 in0.0 mm 0.00 in0.0 mm
09:30 AM 65.4°F18.6°C 23.3°F-4.8°C 20% 8.1 mph SW13.0 kmh SW 11.5 mph18.5 kmh 29.89 in1012.2 mb - 0.00 in0.0 mm 0.00 in0.0 mm
09:40 AM 65.7°F18.7°C 22.3°F-5.4°C 19% 3.5 mph SW5.6 kmh SW 16.1 mph25.9 kmh 29.89 in1012.2 mb - 0.00 in0.0 mm 0.00 in0.0 mm
09:50 AM 66.3°F19.1°C 21.5°F-5.8°C 18% 8.1 mph WSW13.0 kmh WSW 16.1 mph25.9 kmh 29.88 in1011.9 mb - 0.00 in0.0 mm 0.00 in0.0 mm
10:00 AM 66.3°F19.1°C 22.7°F-5.2°C 19% 4.6 mph S7.4 kmh S 9.2 mph14.8 kmh 29.89 in1012.2 mb - 0.00 in0.0 mm 0.00 in0.0 mm
10:10 AM 65.7°F18.7°C 22.3°F-5.4°C 19% 4.6 mph S7.4 kmh S 13.8 mph22.2 kmh 29.88 in1011.9 mb - 0.00 in0.0 mm 0.00 in0.0 mm
10:20 AM 66.5°F19.2°C 21.7°F-5.7°C 18% 2.3 mph SE3.7 kmh SE 2.3 mph3.7 kmh 29.88 in1011.9 mb - 0.00 in0.0 mm 0.00 in0.0 mm
10:30 AM 66.6°F19.2°C 23.0°F-5.0°C 19% 5.8 mph S9.3 kmh S 10.4 mph16.7 kmh 29.88 in1011.9 mb - 0.00 in0.0 mm 0.00 in0.0 mm
10:40 AM 66.3°F19.1°C 22.8°F-5.1°C 19% 4.6 mph S7.4 kmh S 12.7 mph20.4 kmh 29.88 in1011.9 mb - 0.00 in0.0 mm 0.00 in0.0 mm
10:50 AM 67.1°F19.5°C 20.8°F-6.2°C 17% 2.3 mph SSE3.7 kmh SSE 8.1 mph13.0 kmh 29.89 in1012.2 mb - 0.00 in0.0 mm 0.00 in0.0 mm
11:00 AM 67.2°F19.6°C 20.8°F-6.2°C 17% 2.3 mph S3.7 kmh S 11.5 mph18.5 kmh 29.89 in1012.2 mb - 0.00 in0.0 mm 0.00 in0.0 mm
11:10 AM 68.1°F20.1°C 20.2°F-6.6°C 16% 5.8 mph S9.3 kmh S 8.1 mph13.0 kmh 29.89 in1012.2 mb - 0.00 in0.0 mm 0.00 in0.0 mm
11:20 AM 68.6°F20.3°C 20.6°F-6.3°C 16% 4.6 mph SSE7.4 kmh SSE 11.5 mph18.5 kmh 29.89 in1012.2 mb - 0.00 in0.0 mm 0.00 in0.0 mm
11:30 AM 68.2°F20.1°C 20.2°F-6.6°C 16% 5.8 mph S9.3 kmh S 11.5 mph18.5 kmh 29.88 in1011.9 mb - 0.00 in0.0 mm 0.00 in0.0 mm
11:40 AM 68.7°F20.4°C 19.1°F-7.2°C 15% 6.9 mph SSE11.1 kmh SSE 11.5 mph18.5 kmh 29.88 in1011.9 mb - 0.00 in0.0 mm 0.00 in0.0 mm
11:50 AM 68.3°F20.2°C 20.4°F-6.4°C 16% 5.8 mph S9.3 kmh S 8.1 mph13.0 kmh 29.88 in1011.9 mb - 0.00 in0.0 mm 0.00 in0.0 mm
12:00 PM 68.8°F20.4°C 17.6°F-8.0°C 14% 9.2 mph SE14.8 kmh SE 19.6 mph31.5 kmh 29.88 in1011.9 mb - 0.00 in0.0 mm 0.00 in0.0 mm
12:10 PM 69.4°F20.8°C 18.1°F-7.7°C 14% 4.6 mph SSE7.4 kmh SSE 13.8 mph22.2 kmh 29.88 in1011.9 mb - 0.00 in0.0 mm 0.00 in0.0 mm
12:20 PM 69.8°F21.0°C 18.4°F-7.6°C 14% 4.6 mph S7.4 kmh S 9.2 mph14.8 kmh 29.87 in1011.5 mb - 0.00 in0.0 mm 0.00 in0.0 mm
12:30 PM 71.1°F21.7°C 17.7°F-7.9°C 13% 6.9 mph SSW11.1 kmh SSW 11.5 mph18.5 kmh 29.87 in1011.5 mb - 0.00 in0.0 mm 0.00 in0.0 mm
12:40 PM 70.8°F21.6°C 17.5°F-8.1°C 13% 2.3 mph SSE3.7 kmh SSE 9.2 mph14.8 kmh 29.87 in1011.5 mb - 0.00 in0.0 mm 0.00 in0.0 mm
12:50 PM 70.8°F21.6°C 17.5°F-8.1°C 13% 3.5 mph SSW5.6 kmh SSW 11.5 mph18.5 kmh 29.87 in1011.5 mb - 0.00 in0.0 mm 0.00 in0.0 mm
01:00 PM 71.4°F21.9°C 18.0°F-7.8°C 13% 8.1 mph SSW13.0 kmh SSW 13.8 mph22.2 kmh 29.87 in1011.5 mb - 0.00 in0.0 mm 0.00 in0.0 mm
01:10 PM 72.7°F22.6°C 17.1°F-8.3°C 12% 1.2 mph S1.9 kmh S -- 29.86 in1011.2 mb - 0.00 in0.0 mm 0.00 in0.0 mm
01:20 PM 71.7°F22.1°C 16.3°F-8.7°C 12% 1.2 mph SSE1.9 kmh SSE 3.5 mph5.6 kmh 29.86 in1011.2 mb - 0.00 in0.0 mm 0.00 in0.0 mm
01:30 PM 72.1°F22.3°C 16.6°F-8.6°C 12% 4.6 mph SE7.4 kmh SE 9.2 mph14.8 kmh 29.86 in1011.2 mb - 0.00 in0.0 mm 0.00 in0.0 mm
01:40 PM 72.1°F22.3°C 16.7°F-8.5°C 12% 11.5 mph S18.5 kmh S 17.3 mph27.8 kmh 29.86 in1011.2 mb - 0.00 in0.0 mm 0.00 in0.0 mm
01:50 PM 72.0°F22.2°C 14.6°F-9.7°C 11% Calm Calm -- 29.85 in1010.8 mb - 0.00 in0.0 mm 0.00 in0.0 mm
02:00 PM 73.2°F22.9°C 15.5°F-9.2°C 11% 8.1 mph SSW13.0 kmh SSW 17.3 mph27.8 kmh 29.85 in1010.8 mb - 0.00 in0.0 mm 0.00 in0.0 mm
02:10 PM 73.0°F22.8°C 15.3°F-9.3°C 11% 2.3 mph SSE3.7 kmh SSE 8.1 mph13.0 kmh 29.84 in1010.5 mb - 0.00 in0.0 mm 0.00 in0.0 mm
02:20 PM 74.8°F23.8°C 16.7°F-8.5°C 11% 4.6 mph SE7.4 kmh SE 9.2 mph14.8 kmh 29.84 in1010.5 mb - 0.00 in0.0 mm 0.00 in0.0 mm
02:30 PM 73.5°F23.1°C 15.7°F-9.1°C 11% 1.2 mph SSW1.9 kmh SSW 4.6 mph7.4 kmh 29.84 in1010.5 mb - 0.00 in0.0 mm 0.00 in0.0 mm
02:40 PM 74.4°F23.6°C 16.4°F-8.7°C 11% 9.2 mph SSE14.8 kmh SSE 11.5 mph18.5 kmh 29.83 in1010.2 mb - 0.00 in0.0 mm 0.00 in0.0 mm
02:50 PM 75.2°F24.0°C 17.0°F-8.3°C 11% 10.4 mph S16.7 kmh S 18.4 mph29.6 kmh 29.82 in1009.8 mb - 0.00 in0.0 mm 0.00 in0.0 mm
03:00 PM 75.3°F24.1°C 17.1°F-8.3°C 11% 5.8 mph SSE9.3 kmh SSE 11.5 mph18.5 kmh 29.83 in1010.2 mb - 0.00 in0.0 mm 0.00 in0.0 mm
03:10 PM 74.4°F23.6°C 16.4°F-8.7°C 11% 8.1 mph SSE13.0 kmh SSE 17.3 mph27.8 kmh 29.82 in1009.8 mb - 0.00 in0.0 mm 0.00 in0.0 mm
03:20 PM 74.4°F23.6°C 16.4°F-8.7°C 11% 3.5 mph SSE5.6 kmh SSE 9.2 mph14.8 kmh 29.82 in1009.8 mb - 0.00 in0.0 mm 0.00 in0.0 mm
03:30 PM 74.8°F23.8°C 18.7°F-7.4°C 12% 9.2 mph SE14.8 kmh SE 13.8 mph22.2 kmh 29.82 in1009.8 mb - 0.00 in0.0 mm 0.00 in0.0 mm
03:40 PM 74.7°F23.7°C 18.7°F-7.4°C 12% 3.5 mph SE5.6 kmh SE 11.5 mph18.5 kmh 29.81 in1009.5 mb - 0.00 in0.0 mm 0.00 in0.0 mm
03:50 PM 74.9°F23.8°C 20.7°F-6.3°C 13% 5.8 mph SE9.3 kmh SE 6.9 mph11.1 kmh 29.81 in1009.5 mb - 0.00 in0.0 mm 0.00 in0.0 mm
04:00 PM 75.2°F24.0°C 21.0°F-6.1°C 13% 4.6 mph SE7.4 kmh SE 10.4 mph16.7 kmh 29.80 in1009.1 mb - 0.00 in0.0 mm 0.00 in0.0 mm
04:10 PM 74.8°F23.8°C 20.7°F-6.3°C 13% 5.8 mph SE9.3 kmh SE 11.5 mph18.5 kmh 29.80 in1009.1 mb - 0.00 in0.0 mm 0.00 in0.0 mm
04:20 PM 74.9°F23.8°C 20.7°F-6.3°C 13% 6.9 mph SSE11.1 kmh SSE 13.8 mph22.2 kmh 29.80 in1009.1 mb - 0.00 in0.0 mm 0.00 in0.0 mm
04:30 PM 74.3°F23.5°C 20.2°F-6.6°C 13% 3.5 mph SE5.6 kmh SE 8.1 mph13.0 kmh 29.79 in1008.8 mb - 0.00 in0.0 mm 0.00 in0.0 mm
04:40 PM 74.0°F23.3°C 20.0°F-6.7°C 13% 1.2 mph SSE1.9 kmh SSE 6.9 mph11.1 kmh 29.79 in1008.8 mb - 0.00 in0.0 mm 0.00 in0.0 mm
04:50 PM 73.9°F23.3°C 19.9°F-6.7°C 13% 6.9 mph SE11.1 kmh SE 16.1 mph25.9 kmh 29.79 in1008.8 mb - 0.00 in0.0 mm 0.00 in0.0 mm
05:00 PM 73.6°F23.1°C 17.8°F-7.9°C 12% 5.8 mph SE9.3 kmh SE 13.8 mph22.2 kmh 29.79 in1008.8 mb - 0.00 in0.0 mm 0.00 in0.0 mm
05:10 PM 73.7°F23.2°C 17.9°F-7.8°C 12% 4.6 mph SE7.4 kmh SE 19.6 mph31.5 kmh 29.79 in1008.8 mb - 0.00 in0.0 mm 0.00 in0.0 mm
05:20 PM 73.6°F23.1°C 15.8°F-9.0°C 11% 9.2 mph SE14.8 kmh SE 15.0 mph24.1 kmh 29.79 in1008.8 mb - 0.00 in0.0 mm 0.00 in0.0 mm
05:30 PM 73.5°F23.1°C 15.7°F-9.1°C 11% 12.7 mph SE20.4 kmh SE 19.6 mph31.5 kmh 29.78 in1008.5 mb - 0.00 in0.0 mm 0.00 in0.0 mm
05:40 PM 73.4°F23.0°C 15.6°F-9.1°C 11% 12.7 mph SE20.4 kmh SE 23.0 mph37.0 kmh 29.78 in1008.5 mb - 0.00 in0.0 mm 0.00 in0.0 mm
05:50 PM 73.5°F23.1°C 15.7°F-9.1°C 11% 11.5 mph SE18.5 kmh SE 19.6 mph31.5 kmh 29.78 in1008.5 mb - 0.00 in0.0 mm 0.00 in0.0 mm
06:00 PM 73.2°F22.9°C 15.5°F-9.2°C 11% 4.6 mph SE7.4 kmh SE 10.4 mph16.7 kmh 29.78 in1008.5 mb - 0.00 in0.0 mm 0.00 in0.0 mm
06:10 PM 73.4°F23.0°C 15.6°F-9.1°C 11% 8.1 mph SSE13.0 kmh SSE 23.0 mph37.0 kmh 29.78 in1008.5 mb - 0.00 in0.0 mm 0.00 in0.0 mm
06:20 PM 73.1°F22.8°C 17.4°F-8.1°C 12% 4.6 mph SE7.4 kmh SE 13.8 mph22.2 kmh 29.78 in1008.5 mb - 0.00 in0.0 mm 0.00 in0.0 mm
06:30 PM 72.9°F22.7°C 17.3°F-8.2°C 12% 2.3 mph SE3.7 kmh SE 9.2 mph14.8 kmh 29.78 in1008.5 mb - 0.00 in0.0 mm 0.00 in0.0 mm
06:40 PM 72.8°F22.7°C 17.2°F-8.2°C 12% 10.4 mph SE16.7 kmh SE 15.0 mph24.1 kmh 29.78 in1008.5 mb - 0.00 in0.0 mm 0.00 in0.0 mm
06:50 PM 72.4°F22.4°C 16.9°F-8.4°C 12% 5.8 mph SSE9.3 kmh SSE 12.7 mph20.4 kmh 29.79 in1008.8 mb - 0.00 in0.0 mm 0.00 in0.0 mm
07:00 PM 72.0°F22.2°C 16.6°F-8.6°C 12% 8.1 mph SE13.0 kmh SE 17.3 mph27.8 kmh 29.79 in1008.8 mb - 0.00 in0.0 mm 0.00 in0.0 mm
07:10 PM 71.8°F22.1°C 16.4°F-8.7°C 12% 4.6 mph SE7.4 kmh SE 5.8 mph9.3 kmh 29.80 in1009.1 mb - 0.00 in0.0 mm 0.00 in0.0 mm
07:20 PM 71.5°F21.9°C 16.2°F-8.8°C 12% 10.4 mph SE16.7 kmh SE 16.1 mph25.9 kmh 29.80 in1009.1 mb - 0.00 in0.0 mm 0.00 in0.0 mm
07:30 PM 71.6°F22.0°C 16.2°F-8.8°C 12% 5.8 mph SSE9.3 kmh SSE 10.4 mph16.7 kmh 29.80 in1009.1 mb - 0.00 in0.0 mm 0.00 in0.0 mm
07:40 PM 71.4°F21.9°C 16.1°F-8.8°C 12% 3.5 mph S5.6 kmh S 8.1 mph13.0 kmh 29.81 in1009.5 mb - 0.00 in0.0 mm 0.00 in0.0 mm
07:50 PM 71.0°F21.7°C 17.6°F-8.0°C 13% 1.2 mph SSE1.9 kmh SSE 3.5 mph5.6 kmh 29.82 in1009.8 mb - 0.00 in0.0 mm 0.00 in0.0 mm
08:00 PM 70.6°F21.4°C 19.1°F-7.2°C 14% 1.2 mph SE1.9 kmh SE 5.8 mph9.3 kmh 29.82 in1009.8 mb - 0.00 in0.0 mm 0.00 in0.0 mm
08:10 PM 70.3°F21.3°C 18.8°F-7.3°C 14% Calm Calm 4.6 mph7.4 kmh 29.82 in1009.8 mb - 0.00 in0.0 mm 0.00 in0.0 mm
08:20 PM 70.2°F21.2°C 18.7°F-7.4°C 14% Calm Calm 2.3 mph3.7 kmh 29.83 in1010.2 mb - 0.00 in0.0 mm 0.00 in0.0 mm
08:30 PM 70.7°F21.5°C 13.5°F-10.3°C 11% 3.5 mph S5.6 kmh S 9.2 mph14.8 kmh 29.83 in1010.2 mb - 0.00 in0.0 mm 0.00 in0.0 mm
08:40 PM 70.6°F21.4°C 13.5°F-10.3°C 11% 1.2 mph SSW1.9 kmh SSW 3.5 mph5.6 kmh 29.84 in1010.5 mb - 0.00 in0.0 mm 0.00 in0.0 mm
08:50 PM 70.2°F21.2°C 13.2°F-10.4°C 11% 1.2 mph S1.9 kmh S 3.5 mph5.6 kmh 29.84 in1010.5 mb - 0.00 in0.0 mm 0.00 in0.0 mm
09:00 PM 69.9°F21.1°C 12.9°F-10.6°C 11% 1.2 mph SW1.9 kmh SW 4.6 mph7.4 kmh 29.84 in1010.5 mb - 0.00 in0.0 mm 0.00 in0.0 mm
09:10 PM 69.9°F21.1°C 14.9°F-9.5°C 12% 2.3 mph S3.7 kmh S 6.9 mph11.1 kmh 29.85 in1010.8 mb - 0.00 in0.0 mm 0.00 in0.0 mm
09:20 PM 69.6°F20.9°C 14.7°F-9.6°C 12% Calm Calm 1.2 mph1.9 kmh 29.85 in1010.8 mb - 0.00 in0.0 mm 0.00 in0.0 mm
09:30 PM 69.4°F20.8°C 14.5°F-9.7°C 12% 1.2 mph SSE1.9 kmh SSE 3.5 mph5.6 kmh 29.85 in1010.8 mb - 0.00 in0.0 mm 0.00 in0.0 mm
09:40 PM 69.1°F20.6°C 14.3°F-9.8°C 12% Calm Calm -- 29.86 in1011.2 mb - 0.00 in0.0 mm 0.00 in0.0 mm
09:50 PM 68.8°F20.4°C 15.9°F-8.9°C 13% Calm Calm -- 29.86 in1011.2 mb - 0.00 in0.0 mm 0.00 in0.0 mm
10:00 PM 68.4°F20.2°C 15.6°F-9.1°C 13% Calm Calm -- 29.86 in1011.2 mb - 0.00 in0.0 mm 0.00 in0.0 mm
10:10 PM 68.3°F20.2°C 15.5°F-9.2°C 13% Calm Calm -- 29.87 in1011.5 mb - 0.00 in0.0 mm 0.00 in0.0 mm
10:20 PM 67.8°F19.9°C 18.4°F-7.6°C 15% Calm Calm -- 29.88 in1011.9 mb - 0.00 in0.0 mm 0.00 in0.0 mm
10:30 PM 66.7°F19.3°C 20.5°F-6.4°C 17% Calm Calm -- 29.88 in1011.9 mb - 0.00 in0.0 mm 0.00 in0.0 mm
10:40 PM 65.8°F18.8°C 19.8°F-6.8°C 17% 2.3 mph WNW3.7 kmh WNW 4.6 mph7.4 kmh 29.88 in1011.9 mb - 0.00 in0.0 mm 0.00 in0.0 mm
10:50 PM 65.2°F18.4°C 20.6°F-6.3°C 18% Calm Calm 2.3 mph3.7 kmh 29.88 in1011.9 mb - 0.00 in0.0 mm 0.00 in0.0 mm
11:00 PM 65.0°F18.3°C 20.4°F-6.4°C 18% Calm Calm -- 29.88 in1011.9 mb - 0.00 in0.0 mm 0.00 in0.0 mm
11:10 PM 64.9°F18.3°C 20.3°F-6.5°C 18% Calm Calm -- 29.89 in1012.2 mb - 0.00 in0.0 mm 0.00 in0.0 mm
11:20 PM 64.6°F18.1°C 20.1°F-6.6°C 18% Calm Calm -- 29.89 in1012.2 mb - 0.00 in0.0 mm 0.00 in0.0 mm
11:30 PM 64.4°F18.0°C 19.9°F-6.7°C 18% Calm Calm -- 29.89 in1012.2 mb - 0.00 in0.0 mm 0.00 in0.0 mm
11:40 PM 64.0°F17.8°C 19.6°F-6.9°C 18% 2.3 mph WNW3.7 kmh WNW 5.8 mph9.3 kmh 29.89 in1012.2 mb - 0.00 in0.0 mm 0.00 in0.0 mm
11:50 PM 63.8°F17.7°C 19.4°F-7.0°C 18% Calm Calm -- 29.89 in1012.2 mb - 0.00 in0.0 mm 0.00 in0.0 mm